Eastern Oregon Regional Airport at Pendleton

Airport
ICAO code: 
KPDT
Summary
ICAO Region: 
NAM
Territory: 
Location: 
Pendleton, Oregon,
Coordinates: 
Aerial View: 
45° 41' 43.305" N, 118° 50' 29.128" W
Metar
Observation
KPDT 040753Z AUTO 14003KT 10SM CLR 01/M01 A3012 RMK AO2 SLP202 T00061011 400941017
Station
Pendleton, Eastern Oregon Regional At Pendleton Airport
Date/Time
2021-12-04 07:53:00
Wind direction
140°
Wind speed
03 kts
Lowest cloud amount
n/a
Temperature
0.6°C
Dew point
-1.1°C
Humidity
88%
Weather condition
n/a

Description

Eastern Oregon Regional Airport at Pendleton is a public use airport located 5 km northwest of Pendleton, in Umatilla County, Oregon.

Climatology

Semi-arid climate (Köppen climate classification BSk) - Little precipitation, hot summers and cold winters, sometimes with large changes in temperature in a 24 hour period.

Runways

Designator Length Width Surface Rops
16/34 1323 18 ASP Yes/Yes
11/29 1701 30 ASP Yes/Yes
7/25 1920 46 ASP Yes/Yes
Airport map: 
Aerial View: 

SKYbrary Partners:

Safety knowledge contributed by: